createdAt,value
2023-03-29T00:00:47.680Z,-0.75
2023-03-29T00:03:14.384Z,-0.71
2023-03-29T00:05:40.971Z,-0.68
2023-03-29T00:08:07.826Z,-0.64
2023-03-29T00:10:34.362Z,-0.56
2023-03-29T00:13:01.005Z,-0.64
2023-03-29T00:15:27.405Z,-0.70
2023-03-29T00:17:53.894Z,-0.67
2023-03-29T00:20:20.366Z,-0.71
2023-03-29T00:22:46.869Z,-0.82
2023-03-29T00:25:13.546Z,-0.78
2023-03-29T00:27:40.075Z,-0.76
2023-03-29T00:30:06.937Z,-0.65
2023-03-29T00:32:33.584Z,-0.66
2023-03-29T00:35:00.039Z,-0.66
2023-03-29T00:37:26.859Z,-0.65
2023-03-29T00:39:53.304Z,-0.57
2023-03-29T00:42:19.713Z,-0.54
2023-03-29T00:44:53.770Z,-0.55
2023-03-29T00:47:21.032Z,-0.58
2023-03-29T00:49:47.521Z,-0.52
2023-03-29T00:52:14.171Z,-0.46
2023-03-29T00:54:40.723Z,-0.40
2023-03-29T00:57:07.186Z,-0.58
2023-03-29T00:59:33.757Z,-0.44
2023-03-29T01:02:01.021Z,-0.37
2023-03-29T01:04:44.884Z,-0.13
2023-03-29T01:07:30.257Z,0.00
2023-03-29T01:10:01.140Z,0.12
2023-03-29T01:12:32.759Z,0.28
2023-03-29T01:15:03.724Z,0.26
2023-03-29T01:17:30.182Z,0.37
2023-03-29T01:20:01.500Z,0.39
2023-03-29T01:22:33.022Z,0.35
2023-03-29T01:25:06.791Z,0.44
2023-03-29T01:27:33.364Z,0.43
2023-03-29T01:30:03.693Z,0.40
2023-03-29T01:32:33.956Z,0.38
2023-03-29T01:35:20.723Z,0.30
2023-03-29T01:37:55.326Z,0.28
2023-03-29T01:40:21.846Z,0.30
2023-03-29T01:42:57.042Z,0.21
2023-03-29T01:45:42.273Z,0.21
2023-03-29T01:48:14.984Z,0.26
2023-03-29T01:50:42.446Z,0.42
2023-03-29T01:53:10.708Z,0.39
2023-03-29T01:55:40.446Z,0.51
2023-03-29T01:58:06.978Z,0.58
2023-03-29T02:00:33.378Z,0.56
2023-03-29T02:03:01.090Z,0.70
2023-03-29T02:05:28.504Z,0.69
2023-03-29T02:07:55.012Z,0.73
2023-03-29T02:10:21.738Z,0.70
2023-03-29T02:12:48.188Z,0.66
2023-03-29T02:15:15.674Z,0.59
2023-03-29T02:17:42.389Z,0.68
2023-03-29T02:20:08.880Z,0.71
2023-03-29T02:22:37.245Z,0.76
2023-03-29T02:25:03.896Z,0.82
2023-03-29T02:27:30.369Z,0.78
2023-03-29T02:29:56.815Z,0.83
2023-03-29T02:32:31.834Z,0.80
2023-03-29T02:34:59.122Z,0.78
2023-03-29T02:37:25.629Z,0.70
2023-03-29T02:39:52.173Z,0.67
2023-03-29T02:42:18.564Z,0.66
2023-03-29T02:44:45.033Z,0.59
2023-03-29T02:47:19.823Z,0.61
2023-03-29T02:49:46.351Z,0.52
2023-03-29T02:52:14.395Z,0.45
2023-03-29T02:54:40.981Z,0.43
2023-03-29T02:57:07.538Z,0.39
2023-03-29T02:59:34.182Z,0.41
2023-03-29T03:02:00.996Z,0.25
2023-03-29T03:04:27.524Z,0.21
2023-03-29T03:06:53.992Z,0.29
2023-03-29T03:09:20.489Z,0.23
2023-03-29T03:11:47.029Z,0.21
2023-03-29T03:14:13.406Z,0.07
2023-03-29T03:16:39.894Z,-0.06
2023-03-29T03:19:06.597Z,-0.05
2023-03-29T03:21:33.140Z,-0.30
2023-03-29T03:23:59.811Z,-0.30
2023-03-29T03:26:26.315Z,-0.14
2023-03-29T03:28:52.762Z,-0.11
2023-03-29T03:31:19.255Z,-0.09
2023-03-29T03:33:45.734Z,-0.20
2023-03-29T03:36:12.221Z,-0.09
2023-03-29T03:38:38.707Z,-0.12
2023-03-29T03:41:05.758Z,-0.15
2023-03-29T03:43:32.600Z,-0.15
2023-03-29T03:45:59.076Z,-0.17
2023-03-29T03:48:25.807Z,-0.38
2023-03-29T03:50:52.990Z,-0.42
2023-03-29T03:53:19.668Z,-0.32
2023-03-29T03:55:49.593Z,-0.31
2023-03-29T03:58:16.338Z,-0.24
2023-03-29T04:00:42.882Z,-0.42
2023-03-29T04:03:09.675Z,-0.36
2023-03-29T04:05:39.908Z,-0.38
2023-03-29T04:08:06.452Z,-0.29
2023-03-29T04:10:33.115Z,-0.25
2023-03-29T04:12:59.943Z,-0.37
2023-03-29T04:15:26.516Z,-0.37
2023-03-29T04:17:53.238Z,-0.30
2023-03-29T04:20:19.854Z,-0.23
2023-03-29T04:22:46.333Z,-0.23
2023-03-29T04:25:12.830Z,-0.28
2023-03-29T04:27:39.470Z,-0.28
2023-03-29T04:30:06.393Z,-0.16
2023-03-29T04:32:33.440Z,-0.11
2023-03-29T04:34:59.973Z,-0.16
2023-03-29T04:37:26.425Z,-0.14
2023-03-29T04:39:52.927Z,-0.08
2023-03-29T04:42:19.446Z,-0.09
2023-03-29T04:44:45.928Z,-0.07
2023-03-29T04:47:12.515Z,-0.06
2023-03-29T04:49:39.372Z,-0.02
2023-03-29T04:52:05.848Z,-0.01
2023-03-29T04:54:32.364Z,-0.01
2023-03-29T04:56:58.840Z,-0.01
2023-03-29T04:59:25.342Z,-0.03
2023-03-29T05:01:52.211Z,-0.04
2023-03-29T05:04:18.734Z,-0.10
2023-03-29T05:06:45.300Z,-0.06
2023-03-29T05:09:11.802Z,-0.03
2023-03-29T05:11:38.209Z,0.04
2023-03-29T05:14:04.613Z,-0.03
2023-03-29T05:16:31.178Z,0.08
2023-03-29T05:18:58.011Z,0.00
2023-03-29T05:21:24.504Z,-0.07
2023-03-29T05:23:50.967Z,-0.05
2023-03-29T05:26:17.434Z,-0.03
2023-03-29T05:28:43.793Z,-0.04
2023-03-29T05:31:10.286Z,-0.06
2023-03-29T05:33:36.842Z,-0.07
2023-03-29T05:36:07.377Z,-0.06
2023-03-29T05:38:34.089Z,-0.02
2023-03-29T05:41:00.952Z,0.07
2023-03-29T05:43:28.037Z,0.19
2023-03-29T05:45:54.769Z,0.24
2023-03-29T05:48:21.665Z,0.27
2023-03-29T05:50:49.258Z,0.23
2023-03-29T05:53:16.071Z,0.29
2023-03-29T05:55:42.555Z,0.22
2023-03-29T05:58:09.342Z,0.40
2023-03-29T06:00:36.129Z,0.50
2023-03-29T06:03:13.609Z,0.56
2023-03-29T06:05:45.869Z,0.47
2023-03-29T06:08:14.337Z,0.44
2023-03-29T06:10:41.146Z,0.58
2023-03-29T06:13:07.672Z,0.59
2023-03-29T06:15:34.264Z,0.67
2023-03-29T06:18:03.871Z,0.75
2023-03-29T06:20:31.565Z,0.87
2023-03-29T06:22:58.101Z,0.90
2023-03-29T06:25:24.658Z,0.89
2023-03-29T06:27:51.144Z,1.04
2023-03-29T06:30:17.635Z,1.06
2023-03-29T06:32:44.194Z,1.10
2023-03-29T06:35:10.862Z,1.20
2023-03-29T06:37:37.533Z,1.22
2023-03-29T06:40:04.423Z,1.27
2023-03-29T06:42:30.854Z,1.27
2023-03-29T06:44:57.338Z,1.37
2023-03-29T06:47:23.813Z,1.37
2023-03-29T06:49:50.265Z,1.45
2023-03-29T06:52:17.008Z,1.62
2023-03-29T06:54:43.483Z,1.50
2023-03-29T06:57:09.952Z,1.46
2023-03-29T06:59:36.512Z,1.58
2023-03-29T07:02:03.131Z,1.57
2023-03-29T07:04:29.801Z,1.61
2023-03-29T07:06:56.280Z,1.67
2023-03-29T07:09:22.840Z,1.65
2023-03-29T07:11:49.261Z,1.55
2023-03-29T07:14:15.810Z,1.62
2023-03-29T07:16:42.306Z,1.66
2023-03-29T07:19:08.814Z,1.83
2023-03-29T07:21:36.690Z,1.86
2023-03-29T07:24:04.452Z,1.87
2023-03-29T07:26:30.947Z,1.85
2023-03-29T07:28:57.520Z,1.98
2023-03-29T07:31:23.987Z,1.94
2023-03-29T07:33:50.402Z,1.90
2023-03-29T07:36:17.014Z,1.99
2023-03-29T07:38:43.519Z,1.87
2023-03-29T07:41:10.555Z,2.03
2023-03-29T07:43:37.186Z,2.05
2023-03-29T07:46:03.992Z,1.91
2023-03-29T07:48:30.812Z,2.20
2023-03-29T07:50:57.350Z,2.37
2023-03-29T07:53:23.938Z,2.37
2023-03-29T07:55:50.390Z,2.32
2023-03-29T07:58:16.742Z,2.63
2023-03-29T08:00:43.230Z,2.71
2023-03-29T08:03:12.722Z,2.71
2023-03-29T08:05:41.715Z,2.74
2023-03-29T08:08:08.905Z,2.92
2023-03-29T08:10:36.208Z,2.95
2023-03-29T08:13:04.173Z,3.11
2023-03-29T08:15:30.635Z,3.02
2023-03-29T08:17:57.133Z,3.34
2023-03-29T08:20:23.624Z,3.30
2023-03-29T08:22:50.199Z,3.35
2023-03-29T08:25:16.626Z,3.55
2023-03-29T08:27:43.015Z,3.70
2023-03-29T08:30:09.647Z,3.41
2023-03-29T08:32:36.717Z,3.62
2023-03-29T08:35:07.946Z,3.33
2023-03-29T08:37:34.396Z,3.74
2023-03-29T08:40:01.027Z,3.90
2023-03-29T08:42:33.453Z,4.04
2023-03-29T08:45:06.088Z,4.24
2023-03-29T08:47:50.836Z,4.10
2023-03-29T08:50:17.482Z,4.35
2023-03-29T08:52:49.030Z,4.32
2023-03-29T08:55:19.544Z,4.65
2023-03-29T08:57:46.626Z,4.43
2023-03-29T09:00:25.851Z,4.70
2023-03-29T09:02:52.377Z,4.80
2023-03-29T09:05:18.835Z,4.89
2023-03-29T09:07:45.457Z,4.49
2023-03-29T09:10:13.450Z,4.50
2023-03-29T09:12:50.453Z,4.85
2023-03-29T09:15:24.260Z,5.47
2023-03-29T09:17:53.504Z,5.22
2023-03-29T09:20:35.233Z,4.60
2023-03-29T09:23:05.121Z,5.11
2023-03-29T09:25:52.541Z,5.60
2023-03-29T09:28:21.571Z,5.73
2023-03-29T09:30:51.334Z,5.75
2023-03-29T09:33:40.162Z,5.84
2023-03-29T09:36:06.865Z,5.61
2023-03-29T09:38:33.658Z,5.78
2023-03-29T09:41:02.854Z,5.39
2023-03-29T09:43:33.435Z,5.48
2023-03-29T09:46:01.391Z,5.70
2023-03-29T09:48:27.914Z,6.01
2023-03-29T09:50:54.316Z,5.99
2023-03-29T09:53:20.788Z,6.61
2023-03-29T09:55:50.244Z,6.66
2023-03-29T09:58:19.956Z,6.69
2023-03-29T10:00:46.514Z,6.91
2023-03-29T10:03:19.685Z,7.09
2023-03-29T10:05:46.226Z,7.55
2023-03-29T10:08:16.114Z,7.27
2023-03-29T10:10:43.627Z,10.06
2023-03-29T10:13:13.323Z,9.28
2023-03-29T10:15:39.814Z,10.91
2023-03-29T10:18:07.186Z,10.77
2023-03-29T10:20:36.901Z,9.70
2023-03-29T10:23:05.029Z,9.38
2023-03-29T10:25:31.854Z,8.90
2023-03-29T10:28:08.214Z,8.62
2023-03-29T10:30:36.743Z,8.82
2023-03-29T10:33:03.342Z,8.83
2023-03-29T10:35:30.840Z,8.83
2023-03-29T10:37:57.791Z,8.56
2023-03-29T10:40:30.860Z,8.59
2023-03-29T10:43:00.936Z,8.18
2023-03-29T10:45:28.462Z,8.37
2023-03-29T10:47:55.459Z,8.31
2023-03-29T10:50:22.029Z,8.49
2023-03-29T10:52:48.546Z,8.48
2023-03-29T10:55:15.052Z,8.41
2023-03-29T10:57:41.660Z,8.20
2023-03-29T11:00:28.315Z,8.43
2023-03-29T11:03:04.852Z,8.50
2023-03-29T11:05:40.450Z,8.57
2023-03-29T11:08:25.149Z,8.55
2023-03-29T11:11:00.766Z,8.56
2023-03-29T11:13:46.411Z,8.57
2023-03-29T11:16:17.027Z,8.51
2023-03-29T11:18:55.652Z,8.41
2023-03-29T11:21:36.327Z,8.21
2023-03-29T11:24:21.836Z,8.07
2023-03-29T11:27:08.184Z,8.15
2023-03-29T11:29:46.725Z,8.31
2023-03-29T11:32:19.746Z,8.31
2023-03-29T11:35:05.199Z,8.46
2023-03-29T11:37:43.206Z,8.60
2023-03-29T11:40:28.347Z,8.45
2023-03-29T11:42:55.232Z,8.54
2023-03-29T11:45:27.417Z,8.69
2023-03-29T11:47:53.946Z,8.56
2023-03-29T11:50:24.577Z,8.61
2023-03-29T11:52:51.016Z,8.72
2023-03-29T11:55:21.880Z,8.90
2023-03-29T11:57:51.509Z,9.15
2023-03-29T12:00:18.943Z,9.18
2023-03-29T12:02:46.433Z,9.28
2023-03-29T12:05:23.262Z,9.29
2023-03-29T12:07:59.020Z,9.46
2023-03-29T12:10:30.859Z,9.58
2023-03-29T12:13:00.979Z,9.55
2023-03-29T12:15:28.557Z,9.46
2023-03-29T12:18:01.010Z,9.46
2023-03-29T12:20:28.746Z,9.27
2023-03-29T12:22:55.222Z,9.19
2023-03-29T12:25:31.636Z,9.31
2023-03-29T12:28:12.254Z,9.22
2023-03-29T12:30:47.030Z,9.44
2023-03-29T12:33:15.775Z,9.52
2023-03-29T12:35:49.016Z,9.60
2023-03-29T12:38:21.801Z,9.72
2023-03-29T12:40:48.920Z,9.72
2023-03-29T12:43:16.805Z,9.77
2023-03-29T12:45:43.981Z,10.13
2023-03-29T12:48:14.986Z,10.22
2023-03-29T12:50:46.157Z,10.50
2023-03-29T12:53:12.539Z,10.22
2023-03-29T12:55:41.683Z,10.30
2023-03-29T12:58:20.905Z,9.96
2023-03-29T13:00:47.386Z,10.47
2023-03-29T13:03:32.677Z,10.52
2023-03-29T13:06:02.714Z,10.35
2023-03-29T13:08:36.724Z,10.42
2023-03-29T13:11:03.816Z,10.23
2023-03-29T13:13:33.870Z,10.03
2023-03-29T13:16:13.857Z,10.43
2023-03-29T13:18:44.271Z,10.40
2023-03-29T13:21:13.680Z,10.40
2023-03-29T13:23:59.091Z,10.37
2023-03-29T13:26:25.661Z,10.35
2023-03-29T13:28:52.141Z,10.44
2023-03-29T13:31:31.023Z,10.56
2023-03-29T13:34:00.888Z,10.43
2023-03-29T13:36:27.247Z,10.42
2023-03-29T13:38:53.834Z,10.71
2023-03-29T13:41:38.639Z,10.83
2023-03-29T13:44:16.670Z,10.56
2023-03-29T13:46:43.479Z,10.47
2023-03-29T13:49:14.876Z,10.47
2023-03-29T13:51:42.150Z,10.46
2023-03-29T13:54:27.464Z,10.22
2023-03-29T13:56:58.943Z,10.33
2023-03-29T13:59:30.897Z,10.40
2023-03-29T14:01:57.927Z,10.54
2023-03-29T14:04:25.444Z,10.75
2023-03-29T14:06:52.865Z,10.72
2023-03-29T14:09:19.931Z,10.55
2023-03-29T14:11:46.510Z,10.68
2023-03-29T14:14:13.076Z,10.62
2023-03-29T14:16:39.935Z,10.51
2023-03-29T14:19:07.650Z,10.14
2023-03-29T14:21:34.069Z,9.89
2023-03-29T14:24:01.146Z,9.78
2023-03-29T14:26:31.298Z,9.77
2023-03-29T14:28:58.559Z,9.67
2023-03-29T14:31:25.805Z,9.83
2023-03-29T14:33:52.670Z,10.16
2023-03-29T14:36:19.207Z,10.31
2023-03-29T14:38:47.607Z,10.42
2023-03-29T14:41:14.029Z,10.37
2023-03-29T14:43:40.459Z,10.19
2023-03-29T14:46:07.063Z,10.21
2023-03-29T14:48:33.613Z,10.02
2023-03-29T14:51:00.138Z,9.87
2023-03-29T14:53:26.712Z,9.86
2023-03-29T14:55:54.370Z,10.00
2023-03-29T14:58:20.754Z,9.83
2023-03-29T15:00:48.105Z,9.57
2023-03-29T15:03:14.889Z,9.67
2023-03-29T15:05:41.926Z,9.53
2023-03-29T15:08:10.180Z,9.66
2023-03-29T15:10:36.745Z,9.73
2023-03-29T15:13:04.324Z,9.44
2023-03-29T15:15:31.793Z,9.51
2023-03-29T15:17:58.278Z,9.55
2023-03-29T15:20:25.546Z,9.43
2023-03-29T15:23:01.834Z,9.38
2023-03-29T15:25:32.492Z,9.50
2023-03-29T15:28:00.993Z,9.49
2023-03-29T15:30:35.081Z,9.37
2023-03-29T15:33:14.696Z,9.54
2023-03-29T15:35:41.403Z,9.57
2023-03-29T15:38:10.442Z,9.58
2023-03-29T15:40:37.099Z,9.32
2023-03-29T15:43:03.771Z,9.31
2023-03-29T15:45:30.225Z,9.42
2023-03-29T15:47:56.702Z,9.41
2023-03-29T15:50:23.213Z,9.33
2023-03-29T15:52:49.592Z,9.45
2023-03-29T15:55:16.265Z,9.44
2023-03-29T15:57:42.913Z,9.64
2023-03-29T16:00:10.319Z,9.64
2023-03-29T16:02:37.068Z,9.77
2023-03-29T16:05:03.702Z,9.89
2023-03-29T16:07:30.143Z,9.71
2023-03-29T16:09:56.553Z,9.57
2023-03-29T16:12:22.973Z,9.42
2023-03-29T16:14:49.510Z,9.44
2023-03-29T16:17:16.074Z,9.27
2023-03-29T16:19:42.659Z,9.26
2023-03-29T16:22:09.110Z,9.22
2023-03-29T16:24:35.568Z,9.17
2023-03-29T16:27:02.411Z,9.00
2023-03-29T16:29:28.816Z,9.07
2023-03-29T16:31:55.758Z,8.99
2023-03-29T16:34:22.280Z,8.99
2023-03-29T16:36:48.800Z,9.08
2023-03-29T16:39:15.346Z,8.96
2023-03-29T16:41:42.103Z,8.83
2023-03-29T16:44:10.796Z,8.85
2023-03-29T16:46:37.369Z,8.81
2023-03-29T16:49:04.087Z,8.81
2023-03-29T16:51:30.478Z,8.78
2023-03-29T16:53:56.843Z,8.63
2023-03-29T16:56:23.392Z,8.55
2023-03-29T16:58:49.881Z,8.33
2023-03-29T17:01:16.459Z,8.29
2023-03-29T17:03:43.118Z,8.33
2023-03-29T17:06:09.902Z,8.26
2023-03-29T17:08:36.706Z,8.21
2023-03-29T17:11:04.342Z,8.11
2023-03-29T17:13:30.869Z,8.00
2023-03-29T17:15:57.414Z,7.94
2023-03-29T17:18:24.476Z,7.85
2023-03-29T17:20:51.131Z,7.88
2023-03-29T17:23:17.680Z,7.79
2023-03-29T17:25:44.180Z,7.73
2023-03-29T17:28:10.772Z,7.79
2023-03-29T17:30:37.503Z,7.72
2023-03-29T17:33:04.045Z,7.63
2023-03-29T17:35:30.616Z,7.55
2023-03-29T17:37:57.076Z,7.49
2023-03-29T17:40:23.505Z,7.41
2023-03-29T17:42:51.770Z,7.30
2023-03-29T17:45:18.421Z,7.24
2023-03-29T17:47:44.939Z,7.22
2023-03-29T17:50:11.810Z,7.18
2023-03-29T17:52:38.380Z,7.03
2023-03-29T17:55:05.572Z,7.00
2023-03-29T17:57:32.036Z,7.03
2023-03-29T17:59:58.440Z,6.98
2023-03-29T18:02:25.000Z,6.96
2023-03-29T18:04:51.560Z,6.86
2023-03-29T18:07:18.521Z,6.81
2023-03-29T18:09:45.039Z,6.61
2023-03-29T18:12:11.444Z,6.61
2023-03-29T18:14:37.991Z,6.59
2023-03-29T18:17:04.590Z,6.52
2023-03-29T18:19:31.131Z,6.43
2023-03-29T18:21:57.532Z,6.38
2023-03-29T18:24:24.032Z,6.39
2023-03-29T18:26:50.833Z,6.27
2023-03-29T18:29:17.228Z,6.35
2023-03-29T18:31:43.754Z,6.31
2023-03-29T18:34:10.368Z,6.29
2023-03-29T18:36:36.927Z,6.29
2023-03-29T18:39:03.594Z,6.23
2023-03-29T18:41:30.108Z,5.90
2023-03-29T18:43:56.558Z,5.79
2023-03-29T18:46:23.347Z,5.58
2023-03-29T18:48:49.828Z,5.66
2023-03-29T18:51:16.262Z,5.78
2023-03-29T18:53:42.754Z,5.90
2023-03-29T18:56:09.226Z,6.04
2023-03-29T18:58:35.900Z,5.86
2023-03-29T19:01:02.512Z,5.67
2023-03-29T19:03:29.086Z,5.84
2023-03-29T19:05:55.548Z,5.89
2023-03-29T19:08:22.480Z,5.99
2023-03-29T19:10:48.854Z,5.97
2023-03-29T19:13:15.307Z,5.93
2023-03-29T19:15:41.925Z,5.96
2023-03-29T19:18:08.389Z,5.88
2023-03-29T19:20:35.056Z,5.98
2023-03-29T19:23:01.749Z,5.97
2023-03-29T19:25:28.520Z,5.98
2023-03-29T19:27:54.951Z,6.06
2023-03-29T19:30:21.399Z,6.05
2023-03-29T19:32:47.838Z,6.01
2023-03-29T19:35:14.371Z,6.05
2023-03-29T19:37:40.915Z,6.12
2023-03-29T19:40:07.791Z,5.88
2023-03-29T19:42:34.355Z,5.89
2023-03-29T19:45:00.900Z,6.03
2023-03-29T19:47:27.288Z,6.02
2023-03-29T19:49:53.704Z,5.93
2023-03-29T19:52:20.403Z,5.68
2023-03-29T19:54:47.134Z,5.80
2023-03-29T19:57:13.607Z,5.89
2023-03-29T19:59:40.142Z,5.91
2023-03-29T20:02:06.649Z,5.98
2023-03-29T20:04:33.368Z,5.94
2023-03-29T20:07:00.093Z,6.03
2023-03-29T20:09:26.554Z,6.08
2023-03-29T20:11:53.023Z,5.90
2023-03-29T20:14:19.614Z,6.00
2023-03-29T20:16:46.520Z,6.06
2023-03-29T20:19:13.017Z,6.15
2023-03-29T20:21:39.617Z,6.11
2023-03-29T20:24:06.168Z,6.10
2023-03-29T20:26:32.646Z,6.19
2023-03-29T20:28:59.229Z,6.23
2023-03-29T20:31:25.716Z,6.19
2023-03-29T20:33:52.140Z,6.20
2023-03-29T20:36:18.766Z,6.17
2023-03-29T20:38:45.323Z,6.20
2023-03-29T20:41:11.733Z,6.19
2023-03-29T20:43:38.236Z,6.03
2023-03-29T20:46:05.049Z,5.91
2023-03-29T20:48:31.538Z,5.83
2023-03-29T20:50:58.002Z,5.84
2023-03-29T20:53:24.389Z,5.88
2023-03-29T20:55:50.787Z,5.75
2023-03-29T20:58:17.219Z,5.71
2023-03-29T21:00:43.789Z,5.74
2023-03-29T21:03:10.376Z,5.72
2023-03-29T21:05:37.038Z,5.68
2023-03-29T21:08:03.458Z,5.67
2023-03-29T21:10:29.833Z,5.65
2023-03-29T21:12:56.243Z,5.57
2023-03-29T21:15:22.787Z,5.61
2023-03-29T21:17:49.265Z,5.55
2023-03-29T21:20:15.884Z,5.62
2023-03-29T21:22:42.417Z,5.65
2023-03-29T21:25:09.300Z,5.61
2023-03-29T21:27:35.938Z,5.50
2023-03-29T21:30:03.104Z,5.46
2023-03-29T21:32:29.924Z,5.50
2023-03-29T21:34:56.495Z,5.54
2023-03-29T21:37:23.048Z,5.41
2023-03-29T21:39:49.485Z,5.48
2023-03-29T21:42:16.084Z,5.33
2023-03-29T21:44:42.571Z,5.13
2023-03-29T21:47:09.044Z,5.31
2023-03-29T21:49:35.553Z,5.18
2023-03-29T21:52:01.968Z,5.25
2023-03-29T21:54:28.376Z,5.33
2023-03-29T21:56:54.963Z,5.25
2023-03-29T21:59:21.332Z,5.31
2023-03-29T22:01:47.936Z,5.35
2023-03-29T22:04:22.604Z,5.34
2023-03-29T22:06:55.824Z,5.40
2023-03-29T22:09:22.274Z,5.47
2023-03-29T22:11:48.668Z,5.52
2023-03-29T22:14:15.124Z,5.44
2023-03-29T22:16:41.754Z,5.41
2023-03-29T22:19:08.287Z,5.50
2023-03-29T22:21:34.637Z,5.33
2023-03-29T22:24:01.098Z,5.23
2023-03-29T22:26:29.057Z,5.31
2023-03-29T22:28:55.508Z,5.36
2023-03-29T22:31:22.298Z,5.35
2023-03-29T22:33:48.963Z,5.29
2023-03-29T22:36:19.812Z,5.33
2023-03-29T22:38:46.562Z,5.28
2023-03-29T22:41:13.059Z,5.12
2023-03-29T22:43:39.449Z,5.10
2023-03-29T22:46:06.286Z,5.23
2023-03-29T22:48:32.798Z,5.26
2023-03-29T22:50:59.615Z,5.18
2023-03-29T22:53:26.207Z,5.23
2023-03-29T22:55:52.995Z,5.28
2023-03-29T22:58:19.510Z,5.36
2023-03-29T23:00:45.975Z,5.27
2023-03-29T23:03:12.380Z,5.21
2023-03-29T23:05:38.748Z,5.24
2023-03-29T23:08:05.249Z,5.15
2023-03-29T23:10:31.650Z,5.09
2023-03-29T23:12:58.134Z,5.08
2023-03-29T23:15:24.597Z,5.02
2023-03-29T23:17:50.976Z,5.05
2023-03-29T23:20:17.411Z,5.07
2023-03-29T23:22:43.951Z,4.96
2023-03-29T23:25:10.396Z,4.97
2023-03-29T23:27:36.811Z,4.97
2023-03-29T23:30:03.333Z,5.02
2023-03-29T23:32:29.758Z,4.93
2023-03-29T23:34:56.232Z,4.93
2023-03-29T23:37:22.719Z,4.84
2023-03-29T23:39:49.197Z,4.93
2023-03-29T23:42:15.652Z,5.00
2023-03-29T23:44:42.099Z,4.90
2023-03-29T23:47:08.782Z,4.95
2023-03-29T23:49:35.409Z,5.02
2023-03-29T23:52:02.153Z,4.98
2023-03-29T23:54:28.654Z,4.91
2023-03-29T23:56:55.077Z,4.87
2023-03-29T23:59:21.682Z,4.96
